Flight Track Log - Related Links

Times and Time Zones

All times are in EDT time to prevent confusion due to time zone crossing. See the N350BV flight status page for this flight to view local times or setup timezone preferences in your user account.

Time Position Orientation Groundspeed Altitude Reporting Facility
EDT Latitude Longitude Course Direction KTS MPH feet Rate Location/Type
Sat 05:17:42 PM 36.8744 -111.7839 252° West 266 306 16,300  Level Los Angeles Center
Sat 05:18:44 PM 36.8564 -111.8711 256° West 265 305 19,000 2,565 Climbing Los Angeles Center
Sat 05:19:46 PM 36.8369 -111.9578 254° West 260 299 21,600 1,967 Climbing Los Angeles Center
Sat 05:20:46 PM 36.8172 -112.0586 256° West 287 330 23,000 1,279 Climbing Denver Center
Sat 05:21:48 PM 36.7828 -112.2011 253° West 344 396 24,200 1,333 Climbing Denver Center
Sat 05:22:52 PM 36.7550 -112.3222 254° West 361 415 25,800 1,286 Climbing Los Angeles Center
Sat 05:23:54 PM 36.7278 -112.4489 255° West 373 429 26,900 1,065 Climbing Los Angeles Center
Sat 05:24:56 PM 36.6992 -112.5769 254° West 381 438 28,000 1,065 Climbing Los Angeles Center
Sat 05:25:58 PM 36.6681 -112.7097 254° West 395 455 29,100 1,065 Climbing Los Angeles Center
Sat 05:27:00 PM 36.6378 -112.8425 254° West 397 457 30,200 919 Climbing Los Angeles Center
Sat 05:28:02 PM 36.6006 -113.0019 254° West 398 458 31,000 726 Climbing Los Angeles Center
Sat 05:29:04 PM 36.5681 -113.1408 254° West 411 473 31,700 1,016 Climbing Los Angeles Center
Sat 05:30:06 PM 36.5367 -113.2781 254° West 413 475 33,100 1,355 Climbing Los Angeles Center
Sat 05:31:08 PM 36.5050 -113.4117 254° West 405 466 34,500 1,279 Climbing Los Angeles Center
Sat 05:32:22 PM 36.4703 -113.5594 254° West 401 461 36,000 657 Climbing Los Angeles Center
Sat 05:33:25 PM 36.4322 -113.7256 254° West 416 479 36,000  Level Los Angeles Center
Sat 05:34:27 PM 36.3967 -113.8719 253° West 436 502 36,000  Level Los Angeles Center
Sat 05:35:29 PM 36.3617 -114.0194 254° West 444 511 36,000  Level Los Angeles Center
Sat 05:36:31 PM 36.3256 -114.1653 253° West 443 510 36,000  Level Los Angeles Center
Sat 05:37:33 PM 36.2903 -114.3111 253° West 441 507 36,000  Level Los Angeles Center
Sat 05:38:35 PM 36.2467 -114.4864 253° West 442 509 36,000  Level Los Angeles Center
Sat 05:39:37 PM 36.2111 -114.6300 253° West 438 504 36,000  Level Los Angeles Center
Sat 05:40:39 PM 36.1756 -114.7747 253° West 438 504 36,000  Level Los Angeles Center
Sat 05:41:41 PM 36.1408 -114.9214 254° West 440 506 36,000  Level Los Angeles Center
Sat 05:42:43 PM 36.1036 -115.0664 252° West 442 509 36,000  Level Los Angeles Center
Sat 05:43:45 PM 36.0708 -115.2133 255° West 441 507 36,000  Level Los Angeles Center
Sat 05:44:47 PM 36.0522 -115.3614 261° West 433 498 36,000  Level Los Angeles Center
Sat 05:45:49 PM 36.0283 -115.5408 261° West 435 501 36,000  Level Los Angeles Center
Sat 05:46:51 PM 36.0078 -115.6906 260° West 436 502 36,000  Level Los Angeles Center
Sat 05:47:53 PM 35.9867 -115.8394 260° West 436 502 36,000  Level Los Angeles Center
Sat 05:48:55 PM 35.9697 -115.9622 260° West 435 501 36,000  Level Los Angeles Center
Sat 05:49:57 PM 35.9447 -116.1372 260° West 434 499 36,000  Level Los Angeles Center
Sat 05:50:59 PM 35.9247 -116.2831 260° West 433 498 36,000  Level Los Angeles Center
Sat 05:52:01 PM 35.9028 -116.4297 260° West 435 501 36,000  Level Los Angeles Center
Sat 05:53:16 PM 35.8828 -116.5747 260° West 433 498 36,000  Level Los Angeles Center
Sat 05:54:18 PM 35.8531 -116.7781 260° West 433 498 36,000  Level Los Angeles Center
Sat 05:55:20 PM 35.8317 -116.9200 260° West 428 493 36,000  Level Los Angeles Center
Sat 05:56:22 PM 35.7831 -117.0558 246° West 435 501 36,000 48 Level Los Angeles Center
Sat 05:57:24 PM 35.7292 -117.1914 244° Southwest 441 507 36,100 -1,161 Climbing Los Angeles Center
Sat 05:58:26 PM 35.6767 -117.3244 244° Southwest 438 504 33,600 -2,524 Descending Los Angeles Center
Sat 05:59:30 PM 35.6200 -117.4539 242° Southwest 437 503 30,800 -2,976 Descending Los Angeles Center
Sat 06:00:29 PM 35.5317 -117.5933 232° Southwest 437 503 27,500 -3,025 Descending Los Angeles Center
Sat 06:01:31 PM 35.4589 -117.7114 233° Southwest 437 503 24,700 -2,710 Descending Los Angeles Center
Sat 06:02:33 PM 35.3964 -117.8283 237° Southwest 422 486 21,900 -2,710 Descending Los Angeles Center
Sat 06:03:35 PM 35.3597 -117.9500 250° West 391 450 19,100 -2,565 Descending Los Angeles Center
Sat 06:04:37 PM 35.3244 -118.0642 249° West 371 427 16,600 -2,177 Descending Los Angeles Center
Sat 06:05:39 PM 35.3167 -118.1981 266° West 335 386 14,600 -1,403 Descending Los Angeles Center
Sat 06:06:41 PM 35.3231 -118.3025 274° West 315 362 13,700 -919 Descending Los Angeles Center
Sat 06:07:43 PM 35.3294 -118.3958 275° West 283 326 12,700 -1,016 Descending Los Angeles Center
Sat 06:08:45 PM 35.3350 -118.5044 274° West 292 336 11,600 -1,161 Descending Los Angeles Center
Sat 06:09:47 PM 35.3439 -118.6094 276° West 306 352 10,300 -1,707 Descending Los Angeles Center
Sat 06:10:48 PM 35.3500 -118.7114 274° West 304 350 8,100 -2,146 Descending Los Angeles Center
Sat 06:11:50 PM 35.3519 -118.8047 271° West 286 329 5,900 -2,129 Descending Los Angeles Center
Sat 06:13:00 PM 35.3218 -118.9384 321° Northwest  Level FlightAware Approximate
Sat 06:20:00 PM 35.4333 -119.0500 321° Northwest  Level FlightAware Approximate
Sat 06:21:00 PM 35.4339 -119.0577 321° Northwest  Level Estimated
Sat 06:22:00 PM 35.4333 -119.0500 321° Northwest  Level FlightAware Approximate
Sat 06:23:00 PM 35.4339 -119.0577 321° Northwest  Level Estimated

Login

Don't have an account? Register now (free) for customized features, flight alerts, and more!